sensor_id;sensor_type;location;lat;lon;timestamp;temperature;humidity
54518;DHT22;40423;53.176;6.002;2022-09-16T00:02:21;12.60;99.90
54518;DHT22;40423;53.176;6.002;2022-09-16T00:07:15;12.60;99.90
54518;DHT22;40423;53.176;6.002;2022-09-16T00:09:41;12.60;99.90
54518;DHT22;40423;53.176;6.002;2022-09-16T00:12:07;12.60;99.90
54518;DHT22;40423;53.176;6.002;2022-09-16T00:14:33;12.60;99.90
54518;DHT22;40423;53.176;6.002;2022-09-16T00:16:58;12.60;99.90
54518;DHT22;40423;53.176;6.002;2022-09-16T00:19:24;12.60;99.90
54518;DHT22;40423;53.176;6.002;2022-09-16T00:21:50;12.60;99.90
54518;DHT22;40423;53.176;6.002;2022-09-16T00:24:16;12.60;99.90
54518;DHT22;40423;53.176;6.002;2022-09-16T00:26:42;12.50;99.90
54518;DHT22;40423;53.176;6.002;2022-09-16T00:29:08;12.80;99.90
54518;DHT22;40423;53.176;6.002;2022-09-16T00:31:34;12.50;99.90
54518;DHT22;40423;53.176;6.002;2022-09-16T00:34:00;12.50;99.90
54518;DHT22;40423;53.176;6.002;2022-09-16T00:36:26;12.40;99.90
54518;DHT22;40423;53.176;6.002;2022-09-16T00:38:53;12.40;99.90
54518;DHT22;40423;53.176;6.002;2022-09-16T00:41:25;12.50;99.90
54518;DHT22;40423;53.176;6.002;2022-09-16T00:44:00;12.60;99.90
54518;DHT22;40423;53.176;6.002;2022-09-16T00:46:43;12.70;99.90
54518;DHT22;40423;53.176;6.002;2022-09-16T00:49:20;12.60;99.90
54518;DHT22;40423;53.176;6.002;2022-09-16T00:51:49;12.70;99.90
54518;DHT22;40423;53.176;6.002;2022-09-16T00:54:17;12.60;99.90
54518;DHT22;40423;53.176;6.002;2022-09-16T00:56:46;12.70;99.90
54518;DHT22;40423;53.176;6.002;2022-09-16T00:59:42;12.70;99.90
54518;DHT22;40423;53.176;6.002;2022-09-16T01:02:08;12.70;99.90
54518;DHT22;40423;53.176;6.002;2022-09-16T01:04:40;12.60;99.90
54518;DHT22;40423;53.176;6.002;2022-09-16T01:07:07;12.60;99.90
54518;DHT22;40423;53.176;6.002;2022-09-16T01:09:33;12.60;99.90
54518;DHT22;40423;53.176;6.002;2022-09-16T01:11:59;12.60;99.90
54518;DHT22;40423;53.176;6.002;2022-09-16T01:14:26;12.60;99.90
54518;DHT22;40423;53.176;6.002;2022-09-16T01:17:18;12.70;99.90
54518;DHT22;40423;53.176;6.002;2022-09-16T01:20:04;12.60;99.90
54518;DHT22;40423;53.176;6.002;2022-09-16T01:37:59;12.60;99.90
54518;DHT22;40423;53.176;6.002;2022-09-16T01:40:15;12.50;99.90
54518;DHT22;40423;53.176;6.002;2022-09-16T01:45:53;12.40;99.90
54518;DHT22;40423;53.176;6.002;2022-09-16T01:51:34;12.30;99.90
54518;DHT22;40423;53.176;6.002;2022-09-16T01:54:09;12.30;99.90
54518;DHT22;40423;53.176;6.002;2022-09-16T01:56:51;12.10;99.90
54518;DHT22;40423;53.176;6.002;2022-09-16T01:59:33;12.20;99.90
54518;DHT22;40423;53.176;6.002;2022-09-16T02:04:54;12.20;99.90
54518;DHT22;40423;53.176;6.002;2022-09-16T02:07:25;12.20;99.90
54518;DHT22;40423;53.176;6.002;2022-09-16T02:09:57;12.30;99.90
54518;DHT22;40423;53.176;6.002;2022-09-16T02:12:28;12.30;99.90
54518;DHT22;40423;53.176;6.002;2022-09-16T02:15:01;12.30;99.90
54518;DHT22;40423;53.176;6.002;2022-09-16T02:17:31;12.30;99.90
54518;DHT22;40423;53.176;6.002;2022-09-16T02:20:07;12.20;99.90
54518;DHT22;40423;53.176;6.002;2022-09-16T02:22:38;12.20;99.90
54518;DHT22;40423;53.176;6.002;2022-09-16T02:25:05;12.20;99.90
54518;DHT22;40423;53.176;6.002;2022-09-16T02:27:34;12.20;99.90
54518;DHT22;40423;53.176;6.002;2022-09-16T02:30:10;12.20;99.90
54518;DHT22;40423;53.176;6.002;2022-09-16T02:32:42;12.20;99.90
54518;DHT22;40423;53.176;6.002;2022-09-16T02:35:14;12.10;99.90
54518;DHT22;40423;53.176;6.002;2022-09-16T02:37:54;12.60;99.90
54518;DHT22;40423;53.176;6.002;2022-09-16T02:40:51;12.10;99.90
54518;DHT22;40423;53.176;6.002;2022-09-16T02:43:17;12.10;99.90
54518;DHT22;40423;53.176;6.002;2022-09-16T02:56:36;12.20;99.90
54518;DHT22;40423;53.176;6.002;2022-09-16T02:59:05;12.10;99.90
54518;DHT22;40423;53.176;6.002;2022-09-16T03:01:34;12.10;99.90
54518;DHT22;40423;53.176;6.002;2022-09-16T03:04:02;12.10;99.90
54518;DHT22;40423;53.176;6.002;2022-09-16T03:06:27;12.10;99.90
54518;DHT22;40423;53.176;6.002;2022-09-16T03:08:57;12.10;99.90
54518;DHT22;40423;53.176;6.002;2022-09-16T03:16:57;12.10;99.90
54518;DHT22;40423;53.176;6.002;2022-09-16T03:25:17;12.00;99.90
54518;DHT22;40423;53.176;6.002;2022-09-16T03:28:17;12.10;99.90
54518;DHT22;40423;53.176;6.002;2022-09-16T03:30:53;12.10;99.90
54518;DHT22;40423;53.176;6.002;2022-09-16T03:33:49;12.20;99.90
54518;DHT22;40423;53.176;6.002;2022-09-16T03:36:16;12.20;99.90
54518;DHT22;40423;53.176;6.002;2022-09-16T03:38:43;12.20;99.90
54518;DHT22;40423;53.176;6.002;2022-09-16T03:41:10;12.20;99.90
54518;DHT22;40423;53.176;6.002;2022-09-16T03:43:35;12.20;99.90
54518;DHT22;40423;53.176;6.002;2022-09-16T03:46:01;12.20;99.90
54518;DHT22;40423;53.176;6.002;2022-09-16T03:48:27;12.20;99.90
54518;DHT22;40423;53.176;6.002;2022-09-16T03:50:53;12.20;99.90
54518;DHT22;40423;53.176;6.002;2022-09-16T03:53:19;12.20;99.90
54518;DHT22;40423;53.176;6.002;2022-09-16T03:55:47;12.20;99.90
54518;DHT22;40423;53.176;6.002;2022-09-16T03:58:14;12.20;99.90
54518;DHT22;40423;53.176;6.002;2022-09-16T04:00:40;12.20;99.90
54518;DHT22;40423;53.176;6.002;2022-09-16T04:03:05;12.20;99.90
54518;DHT22;40423;53.176;6.002;2022-09-16T04:05:31;12.30;99.90
54518;DHT22;40423;53.176;6.002;2022-09-16T04:07:57;12.20;99.90
54518;DHT22;40423;53.176;6.002;2022-09-16T04:10:22;12.10;99.90
54518;DHT22;40423;53.176;6.002;2022-09-16T04:12:48;12.20;99.90
54518;DHT22;40423;53.176;6.002;2022-09-16T04:15:14;12.10;99.90
54518;DHT22;40423;53.176;6.002;2022-09-16T04:17:39;12.10;99.90
54518;DHT22;40423;53.176;6.002;2022-09-16T04:20:06;12.10;99.90
54518;DHT22;40423;53.176;6.002;2022-09-16T04:22:32;12.00;99.90
54518;DHT22;40423;53.176;6.002;2022-09-16T04:24:58;12.00;99.90
54518;DHT22;40423;53.176;6.002;2022-09-16T04:27:24;12.00;99.90
54518;DHT22;40423;53.176;6.002;2022-09-16T04:29:50;11.90;99.90
54518;DHT22;40423;53.176;6.002;2022-09-16T04:32:16;12.00;99.90
54518;DHT22;40423;53.176;6.002;2022-09-16T04:34:41;11.90;99.90
54518;DHT22;40423;53.176;6.002;2022-09-16T04:37:07;11.90;99.90
54518;DHT22;40423;53.176;6.002;2022-09-16T04:39:33;11.90;99.90
54518;DHT22;40423;53.176;6.002;2022-09-16T04:41:59;11.90;99.90
54518;DHT22;40423;53.176;6.002;2022-09-16T04:44:25;11.90;99.90
54518;DHT22;40423;53.176;6.002;2022-09-16T04:46:51;11.90;99.90
54518;DHT22;40423;53.176;6.002;2022-09-16T04:49:17;11.90;99.90
54518;DHT22;40423;53.176;6.002;2022-09-16T04:51:43;11.80;99.90
54518;DHT22;40423;53.176;6.002;2022-09-16T04:54:09;11.80;99.90
54518;DHT22;40423;53.176;6.002;2022-09-16T04:56:36;11.80;99.90
54518;DHT22;40423;53.176;6.002;2022-09-16T04:59:04;11.80;99.90
54518;DHT22;40423;53.176;6.002;2022-09-16T05:01:35;11.70;99.90
54518;DHT22;40423;53.176;6.002;2022-09-16T05:04:03;11.70;99.90
54518;DHT22;40423;53.176;6.002;2022-09-16T05:06:32;11.60;99.90
54518;DHT22;40423;53.176;6.002;2022-09-16T05:08:59;11.60;99.90
54518;DHT22;40423;53.176;6.002;2022-09-16T05:11:28;11.50;99.90
54518;DHT22;40423;53.176;6.002;2022-09-16T05:13:57;11.50;99.90
54518;DHT22;40423;53.176;6.002;2022-09-16T05:16:23;11.50;99.90
54518;DHT22;40423;53.176;6.002;2022-09-16T05:18:50;11.60;99.90
54518;DHT22;40423;53.176;6.002;2022-09-16T05:21:19;11.70;99.90
54518;DHT22;40423;53.176;6.002;2022-09-16T05:23:46;11.70;99.90
54518;DHT22;40423;53.176;6.002;2022-09-16T05:26:15;11.80;99.90
54518;DHT22;40423;53.176;6.002;2022-09-16T05:28:42;11.80;99.90
54518;DHT22;40423;53.176;6.002;2022-09-16T05:31:14;11.90;99.90
54518;DHT22;40423;53.176;6.002;2022-09-16T05:33:45;11.90;99.90
54518;DHT22;40423;53.176;6.002;2022-09-16T05:36:14;12.00;99.90
54518;DHT22;40423;53.176;6.002;2022-09-16T05:38:40;12.00;99.90
54518;DHT22;40423;53.176;6.002;2022-09-16T05:41:06;12.00;99.90
54518;DHT22;40423;53.176;6.002;2022-09-16T05:43:33;11.90;99.90
54518;DHT22;40423;53.176;6.002;2022-09-16T05:45:59;11.90;99.90
54518;DHT22;40423;53.176;6.002;2022-09-16T05:48:26;11.90;99.90
54518;DHT22;40423;53.176;6.002;2022-09-16T05:50:53;11.90;99.90
54518;DHT22;40423;53.176;6.002;2022-09-16T05:53:23;11.90;99.90
54518;DHT22;40423;53.176;6.002;2022-09-16T05:55:56;11.90;99.90
54518;DHT22;40423;53.176;6.002;2022-09-16T05:58:23;12.00;99.90
54518;DHT22;40423;53.176;6.002;2022-09-16T06:00:48;12.00;99.90
54518;DHT22;40423;53.176;6.002;2022-09-16T06:03:15;12.00;99.90
54518;DHT22;40423;53.176;6.002;2022-09-16T06:05:41;12.00;99.90
54518;DHT22;40423;53.176;6.002;2022-09-16T06:08:06;12.00;99.90
54518;DHT22;40423;53.176;6.002;2022-09-16T06:10:37;12.00;99.90
54518;DHT22;40423;53.176;6.002;2022-09-16T06:13:03;12.20;99.90
54518;DHT22;40423;53.176;6.002;2022-09-16T06:15:28;12.40;99.90
54518;DHT22;40423;53.176;6.002;2022-09-16T06:17:54;12.50;99.90
54518;DHT22;40423;53.176;6.002;2022-09-16T06:20:19;12.50;99.90
54518;DHT22;40423;53.176;6.002;2022-09-16T06:22:45;12.50;99.90
54518;DHT22;40423;53.176;6.002;2022-09-16T06:25:11;12.60;99.90
54518;DHT22;40423;53.176;6.002;2022-09-16T06:27:37;12.50;99.90
54518;DHT22;40423;53.176;6.002;2022-09-16T06:30:03;12.50;99.90
54518;DHT22;40423;53.176;6.002;2022-09-16T06:32:32;12.50;99.90
54518;DHT22;40423;53.176;6.002;2022-09-16T06:34:58;12.60;99.90
54518;DHT22;40423;53.176;6.002;2022-09-16T06:37:23;12.50;99.90
54518;DHT22;40423;53.176;6.002;2022-09-16T06:39:50;12.60;99.90
54518;DHT22;40423;53.176;6.002;2022-09-16T06:42:16;12.70;99.90
54518;DHT22;40423;53.176;6.002;2022-09-16T06:44:42;12.80;99.90
54518;DHT22;40423;53.176;6.002;2022-09-16T06:47:07;12.90;99.90
54518;DHT22;40423;53.176;6.002;2022-09-16T06:49:33;13.00;99.90
54518;DHT22;40423;53.176;6.002;2022-09-16T06:51:59;13.10;99.90
54518;DHT22;40423;53.176;6.002;2022-09-16T06:54:24;13.20;99.90
54518;DHT22;40423;53.176;6.002;2022-09-16T06:56:50;13.30;99.90
54518;DHT22;40423;53.176;6.002;2022-09-16T06:59:16;13.50;99.90
54518;DHT22;40423;53.176;6.002;2022-09-16T07:01:42;13.50;99.90
54518;DHT22;40423;53.176;6.002;2022-09-16T07:04:09;13.70;99.90
54518;DHT22;40423;53.176;6.002;2022-09-16T07:06:38;13.80;99.90
54518;DHT22;40423;53.176;6.002;2022-09-16T07:09:04;13.90;99.90
54518;DHT22;40423;53.176;6.002;2022-09-16T07:11:30;13.90;99.90
54518;DHT22;40423;53.176;6.002;2022-09-16T07:13:57;13.90;99.90
54518;DHT22;40423;53.176;6.002;2022-09-16T07:16:25;13.80;99.90
54518;DHT22;40423;53.176;6.002;2022-09-16T07:18:52;13.80;99.90
54518;DHT22;40423;53.176;6.002;2022-09-16T07:21:19;13.70;99.90
54518;DHT22;40423;53.176;6.002;2022-09-16T07:23:46;13.70;99.90
54518;DHT22;40423;53.176;6.002;2022-09-16T07:26:22;13.60;99.90
54518;DHT22;40423;53.176;6.002;2022-09-16T07:28:51;13.60;99.90
54518;DHT22;40423;53.176;6.002;2022-09-16T07:31:19;13.80;99.90
54518;DHT22;40423;53.176;6.002;2022-09-16T07:33:48;13.90;99.90
54518;DHT22;40423;53.176;6.002;2022-09-16T07:36:16;14.00;99.90
54518;DHT22;40423;53.176;6.002;2022-09-16T07:38:43;14.10;99.90
54518;DHT22;40423;53.176;6.002;2022-09-16T07:41:17;14.30;99.90
54518;DHT22;40423;53.176;6.002;2022-09-16T07:43:44;14.30;99.90
54518;DHT22;40423;53.176;6.002;2022-09-16T07:46:11;14.30;99.90
54518;DHT22;40423;53.176;6.002;2022-09-16T07:48:37;14.10;99.90
54518;DHT22;40423;53.176;6.002;2022-09-16T07:51:06;13.90;99.90
54518;DHT22;40423;53.176;6.002;2022-09-16T07:53:33;13.70;99.90
54518;DHT22;40423;53.176;6.002;2022-09-16T07:56:10;13.70;99.90
54518;DHT22;40423;53.176;6.002;2022-09-16T07:58:38;13.60;99.90
54518;DHT22;40423;53.176;6.002;2022-09-16T08:01:05;13.50;99.90
54518;DHT22;40423;53.176;6.002;2022-09-16T08:03:33;13.70;99.90
54518;DHT22;40423;53.176;6.002;2022-09-16T08:06:04;13.70;99.90
54518;DHT22;40423;53.176;6.002;2022-09-16T08:08:30;13.90;99.90
54518;DHT22;40423;53.176;6.002;2022-09-16T08:10:57;14.00;99.90
54518;DHT22;40423;53.176;6.002;2022-09-16T08:13:23;14.20;99.90
54518;DHT22;40423;53.176;6.002;2022-09-16T08:15:49;14.30;99.90
54518;DHT22;40423;53.176;6.002;2022-09-16T08:18:15;14.50;99.90
54518;DHT22;40423;53.176;6.002;2022-09-16T08:20:41;14.60;99.90
54518;DHT22;40423;53.176;6.002;2022-09-16T08:23:09;14.70;98.50
54518;DHT22;40423;53.176;6.002;2022-09-16T08:25:35;14.80;98.50
54518;DHT22;40423;53.176;6.002;2022-09-16T08:28:02;14.90;99.00
54518;DHT22;40423;53.176;6.002;2022-09-16T08:30:28;15.00;97.80
54518;DHT22;40423;53.176;6.002;2022-09-16T08:32:58;15.00;97.30
54518;DHT22;40423;53.176;6.002;2022-09-16T08:35:24;15.10;97.50
54518;DHT22;40423;53.176;6.002;2022-09-16T08:37:51;15.20;97.10
54518;DHT22;40423;53.176;6.002;2022-09-16T08:40:20;15.30;97.10
54518;DHT22;40423;53.176;6.002;2022-09-16T08:46:00;15.40;96.90
54518;DHT22;40423;53.176;6.002;2022-09-16T08:50:53;15.50;97.00
54518;DHT22;40423;53.176;6.002;2022-09-16T08:53:42;15.50;96.50
54518;DHT22;40423;53.176;6.002;2022-09-16T08:56:13;15.60;96.30
54518;DHT22;40423;53.176;6.002;2022-09-16T08:58:53;15.70;96.40
54518;DHT22;40423;53.176;6.002;2022-09-16T09:03:57;15.90;93.50
54518;DHT22;40423;53.176;6.002;2022-09-16T09:12:06;16.00;92.50
54518;DHT22;40423;53.176;6.002;2022-09-16T09:17:35;16.10;94.40
54518;DHT22;40423;53.176;6.002;2022-09-16T09:22:51;16.00;95.20
54518;DHT22;40423;53.176;6.002;2022-09-16T09:25:48;16.10;95.00
54518;DHT22;40423;53.176;6.002;2022-09-16T09:28:27;16.30;95.40
54518;DHT22;40423;53.176;6.002;2022-09-16T09:37:13;16.20;93.30
54518;DHT22;40423;53.176;6.002;2022-09-16T09:40:10;16.00;94.10
54518;DHT22;40423;53.176;6.002;2022-09-16T09:45:24;16.00;94.60
54518;DHT22;40423;53.176;6.002;2022-09-16T09:48:41;16.10;94.20
54518;DHT22;40423;53.176;6.002;2022-09-16T09:50:45;16.20;94.70
54518;DHT22;40423;53.176;6.002;2022-09-16T09:53:27;16.30;94.00
54518;DHT22;40423;53.176;6.002;2022-09-16T09:56:00;16.30;94.10
54518;DHT22;40423;53.176;6.002;2022-09-16T09:58:43;16.40;94.10
54518;DHT22;40423;53.176;6.002;2022-09-16T10:01:10;16.30;92.60
54518;DHT22;40423;53.176;6.002;2022-09-16T10:03:37;16.30;93.20
54518;DHT22;40423;53.176;6.002;2022-09-16T10:06:04;16.50;93.70
54518;DHT22;40423;53.176;6.002;2022-09-16T10:08:49;16.60;93.70
54518;DHT22;40423;53.176;6.002;2022-09-16T10:11:18;16.40;94.00
54518;DHT22;40423;53.176;6.002;2022-09-16T10:13:53;16.30;93.00
54518;DHT22;40423;53.176;6.002;2022-09-16T10:16:32;16.40;93.50
54518;DHT22;40423;53.176;6.002;2022-09-16T10:21:47;16.10;94.00
54518;DHT22;40423;53.176;6.002;2022-09-16T10:26:56;16.40;94.60
54518;DHT22;40423;53.176;6.002;2022-09-16T10:29:22;16.60;93.80
54518;DHT22;40423;53.176;6.002;2022-09-16T10:31:48;16.50;92.70
54518;DHT22;40423;53.176;6.002;2022-09-16T10:34:46;16.60;93.30
54518;DHT22;40423;53.176;6.002;2022-09-16T10:37:14;16.40;93.80
54518;DHT22;40423;53.176;6.002;2022-09-16T10:39:44;16.50;94.40
54518;DHT22;40423;53.176;6.002;2022-09-16T10:42:25;16.50;94.80
54518;DHT22;40423;53.176;6.002;2022-09-16T10:45:00;16.50;93.20
54518;DHT22;40423;53.176;6.002;2022-09-16T10:47:30;16.60;93.60
54518;DHT22;40423;53.176;6.002;2022-09-16T10:50:02;16.70;93.90
54518;DHT22;40423;53.176;6.002;2022-09-16T10:52:31;16.60;94.20
54518;DHT22;40423;53.176;6.002;2022-09-16T10:55:27;16.10;94.70
54518;DHT22;40423;53.176;6.002;2022-09-16T10:58:06;15.80;95.60
54518;DHT22;40423;53.176;6.002;2022-09-16T11:00:46;15.50;96.50
54518;DHT22;40423;53.176;6.002;2022-09-16T11:14:13;17.20;94.10
54518;DHT22;40423;53.176;6.002;2022-09-16T11:17:03;17.30;93.40
54518;DHT22;40423;53.176;6.002;2022-09-16T11:25:19;16.30;95.70
54518;DHT22;40423;53.176;6.002;2022-09-16T11:31:03;16.30;93.70
54518;DHT22;40423;53.176;6.002;2022-09-16T11:33:42;16.50;92.70
54518;DHT22;40423;53.176;6.002;2022-09-16T11:36:35;16.70;93.40
54518;DHT22;40423;53.176;6.002;2022-09-16T11:39:33;16.90;92.90
54518;DHT22;40423;53.176;6.002;2022-09-16T11:42:20;16.80;93.00
54518;DHT22;40423;53.176;6.002;2022-09-16T11:58:02;16.80;92.20
54518;DHT22;40423;53.176;6.002;2022-09-16T12:00:30;16.60;92.80
54518;DHT22;40423;53.176;6.002;2022-09-16T12:03:12;16.50;94.00
54518;DHT22;40423;53.176;6.002;2022-09-16T12:05:48;16.50;94.40
54518;DHT22;40423;53.176;6.002;2022-09-16T12:08:39;16.60;94.50
54518;DHT22;40423;53.176;6.002;2022-09-16T12:11:29;16.60;92.70
54518;DHT22;40423;53.176;6.002;2022-09-16T12:14:15;16.70;92.70
54518;DHT22;40423;53.176;6.002;2022-09-16T12:19:50;16.90;92.70
54518;DHT22;40423;53.176;6.002;2022-09-16T12:22:28;16.90;92.50
54518;DHT22;40423;53.176;6.002;2022-09-16T12:25:01;17.00;93.00
54518;DHT22;40423;53.176;6.002;2022-09-16T12:30:13;16.80;93.40
54518;DHT22;40423;53.176;6.002;2022-09-16T12:35:51;16.70;93.60
54518;DHT22;40423;53.176;6.002;2022-09-16T12:38:19;16.50;94.10
54518;DHT22;40423;53.176;6.002;2022-09-16T12:55:04;16.10;97.60
54518;DHT22;40423;53.176;6.002;2022-09-16T13:00:20;16.00;96.20
54518;DHT22;40423;53.176;6.002;2022-09-16T13:02:54;16.10;96.40
54518;DHT22;40423;53.176;6.002;2022-09-16T13:05:31;16.40;96.70
54518;DHT22;40423;53.176;6.002;2022-09-16T13:08:02;16.50;96.00
54518;DHT22;40423;53.176;6.002;2022-09-16T13:10:33;16.40;95.50
54518;DHT22;40423;53.176;6.002;2022-09-16T13:13:01;16.30;95.40
54518;DHT22;40423;53.176;6.002;2022-09-16T13:20:40;15.20;99.80
54518;DHT22;40423;53.176;6.002;2022-09-16T13:23:21;15.10;99.90
54518;DHT22;40423;53.176;6.002;2022-09-16T13:25:57;14.90;99.90
54518;DHT22;40423;53.176;6.002;2022-09-16T13:28:36;14.80;99.90
54518;DHT22;40423;53.176;6.002;2022-09-16T13:33:39;14.60;99.90
54518;DHT22;40423;53.176;6.002;2022-09-16T13:38:53;14.50;99.90
54518;DHT22;40423;53.176;6.002;2022-09-16T13:44:26;14.50;99.90
54518;DHT22;40423;53.176;6.002;2022-09-16T13:46:52;14.50;99.90
54518;DHT22;40423;53.176;6.002;2022-09-16T13:49:22;14.50;99.90
54518;DHT22;40423;53.176;6.002;2022-09-16T13:51:50;14.50;99.90
54518;DHT22;40423;53.176;6.002;2022-09-16T13:54:25;14.50;99.90
54518;DHT22;40423;53.176;6.002;2022-09-16T14:13:21;14.50;99.90
54518;DHT22;40423;53.176;6.002;2022-09-16T14:15:48;14.50;99.90
54518;DHT22;40423;53.176;6.002;2022-09-16T14:18:18;14.50;99.90
54518;DHT22;40423;53.176;6.002;2022-09-16T14:21:17;14.70;99.90
54518;DHT22;40423;53.176;6.002;2022-09-16T14:23:43;14.80;99.90
54518;DHT22;40423;53.176;6.002;2022-09-16T14:26:14;14.90;99.90
54518;DHT22;40423;53.176;6.002;2022-09-16T14:28:40;14.90;99.90
54518;DHT22;40423;53.176;6.002;2022-09-16T14:31:14;14.90;99.90
54518;DHT22;40423;53.176;6.002;2022-09-16T14:36:46;14.90;99.90
54518;DHT22;40423;53.176;6.002;2022-09-16T14:39:17;14.70;99.90
54518;DHT22;40423;53.176;6.002;2022-09-16T14:41:47;14.40;99.90
54518;DHT22;40423;53.176;6.002;2022-09-16T14:44:22;14.30;99.90
54518;DHT22;40423;53.176;6.002;2022-09-16T14:47:03;14.10;99.90
54518;DHT22;40423;53.176;6.002;2022-09-16T14:49:31;13.90;99.90
54518;DHT22;40423;53.176;6.002;2022-09-16T14:52:00;13.80;99.90
54518;DHT22;40423;53.176;6.002;2022-09-16T14:54:30;13.50;99.90
54518;DHT22;40423;53.176;6.002;2022-09-16T14:57:01;13.20;99.90
54518;DHT22;40423;53.176;6.002;2022-09-16T14:59:46;12.90;99.90
54518;DHT22;40423;53.176;6.002;2022-09-16T15:02:17;12.90;99.90
54518;DHT22;40423;53.176;6.002;2022-09-16T15:04:47;12.80;99.90
54518;DHT22;40423;53.176;6.002;2022-09-16T15:07:23;12.70;99.90
54518;DHT22;40423;53.176;6.002;2022-09-16T15:12:29;12.80;99.90
54518;DHT22;40423;53.176;6.002;2022-09-16T15:14:55;12.80;99.90
54518;DHT22;40423;53.176;6.002;2022-09-16T15:17:24;12.90;99.90
54518;DHT22;40423;53.176;6.002;2022-09-16T15:19:55;13.00;99.90
54518;DHT22;40423;53.176;6.002;2022-09-16T15:22:22;13.00;99.90
54518;DHT22;40423;53.176;6.002;2022-09-16T15:24:51;13.00;99.90
54518;DHT22;40423;53.176;6.002;2022-09-16T15:27:22;13.10;99.90
54518;DHT22;40423;53.176;6.002;2022-09-16T15:29:56;13.10;99.90
54518;DHT22;40423;53.176;6.002;2022-09-16T15:32:24;13.10;99.90
54518;DHT22;40423;53.176;6.002;2022-09-16T15:37:36;13.00;99.90
54518;DHT22;40423;53.176;6.002;2022-09-16T15:40:17;12.90;99.90
54518;DHT22;40423;53.176;6.002;2022-09-16T15:42:45;12.90;99.90
54518;DHT22;40423;53.176;6.002;2022-09-16T15:45:17;12.90;99.90
54518;DHT22;40423;53.176;6.002;2022-09-16T15:48:00;12.80;99.90
54518;DHT22;40423;53.176;6.002;2022-09-16T15:50:28;12.80;99.90
54518;DHT22;40423;53.176;6.002;2022-09-16T15:53:05;12.90;99.90
54518;DHT22;40423;53.176;6.002;2022-09-16T16:01:03;13.00;99.90
54518;DHT22;40423;53.176;6.002;2022-09-16T16:03:35;13.10;99.90
54518;DHT22;40423;53.176;6.002;2022-09-16T16:06:02;13.20;99.90
54518;DHT22;40423;53.176;6.002;2022-09-16T16:08:46;13.20;99.90
54518;DHT22;40423;53.176;6.002;2022-09-16T16:11:18;13.30;99.90
54518;DHT22;40423;53.176;6.002;2022-09-16T16:13:45;13.30;99.90
54518;DHT22;40423;53.176;6.002;2022-09-16T16:16:12;13.30;99.90
54518;DHT22;40423;53.176;6.002;2022-09-16T16:18:40;13.30;99.90
54518;DHT22;40423;53.176;6.002;2022-09-16T16:21:08;13.40;99.90
54518;DHT22;40423;53.176;6.002;2022-09-16T16:23:35;13.40;99.90
54518;DHT22;40423;53.176;6.002;2022-09-16T16:26:06;13.50;99.90
54518;DHT22;40423;53.176;6.002;2022-09-16T16:28:33;13.50;99.90
54518;DHT22;40423;53.176;6.002;2022-09-16T16:31:15;13.50;99.90
54518;DHT22;40423;53.176;6.002;2022-09-16T16:33:43;13.60;99.90
54518;DHT22;40423;53.176;6.002;2022-09-16T16:36:10;13.70;99.90
54518;DHT22;40423;53.176;6.002;2022-09-16T16:38:35;13.60;99.90
54518;DHT22;40423;53.176;6.002;2022-09-16T16:41:01;13.50;99.90
54518;DHT22;40423;53.176;6.002;2022-09-16T16:43:28;13.30;99.90
54518;DHT22;40423;53.176;6.002;2022-09-16T16:45:55;13.20;99.90
54518;DHT22;40423;53.176;6.002;2022-09-16T16:48:21;13.10;99.90
54518;DHT22;40423;53.176;6.002;2022-09-16T16:50:55;13.20;99.90
54518;DHT22;40423;53.176;6.002;2022-09-16T16:53:21;13.20;99.90
54518;DHT22;40423;53.176;6.002;2022-09-16T16:55:46;13.20;99.90
54518;DHT22;40423;53.176;6.002;2022-09-16T16:58:12;13.10;99.90
54518;DHT22;40423;53.176;6.002;2022-09-16T17:00:38;13.20;99.90
54518;DHT22;40423;53.176;6.002;2022-09-16T17:03:07;13.20;99.90
54518;DHT22;40423;53.176;6.002;2022-09-16T17:05:33;13.20;99.90
54518;DHT22;40423;53.176;6.002;2022-09-16T17:07:58;13.20;99.90
54518;DHT22;40423;53.176;6.002;2022-09-16T17:10:25;13.30;99.90
54518;DHT22;40423;53.176;6.002;2022-09-16T17:12:50;13.30;99.90
54518;DHT22;40423;53.176;6.002;2022-09-16T17:15:16;13.40;99.90
54518;DHT22;40423;53.176;6.002;2022-09-16T17:17:42;13.50;99.90
54518;DHT22;40423;53.176;6.002;2022-09-16T17:20:17;13.40;99.90
54518;DHT22;40423;53.176;6.002;2022-09-16T17:22:43;13.50;99.90
54518;DHT22;40423;53.176;6.002;2022-09-16T17:25:09;13.50;99.90
54518;DHT22;40423;53.176;6.002;2022-09-16T17:27:35;13.50;99.90
54518;DHT22;40423;53.176;6.002;2022-09-16T17:30:00;13.60;99.90
54518;DHT22;40423;53.176;6.002;2022-09-16T17:32:26;13.50;99.90
54518;DHT22;40423;53.176;6.002;2022-09-16T17:34:52;13.60;99.90
54518;DHT22;40423;53.176;6.002;2022-09-16T17:37:18;13.60;99.90
54518;DHT22;40423;53.176;6.002;2022-09-16T17:39:44;13.50;99.90
54518;DHT22;40423;53.176;6.002;2022-09-16T17:42:10;13.50;99.90
54518;DHT22;40423;53.176;6.002;2022-09-16T17:44:36;13.50;99.90
54518;DHT22;40423;53.176;6.002;2022-09-16T17:47:01;13.40;99.90
54518;DHT22;40423;53.176;6.002;2022-09-16T17:49:28;13.40;99.90
54518;DHT22;40423;53.176;6.002;2022-09-16T17:51:54;13.50;99.90
54518;DHT22;40423;53.176;6.002;2022-09-16T17:54:20;13.40;99.90
54518;DHT22;40423;53.176;6.002;2022-09-16T17:56:46;13.40;99.90
54518;DHT22;40423;53.176;6.002;2022-09-16T17:59:16;13.30;99.90
54518;DHT22;40423;53.176;6.002;2022-09-16T18:01:43;13.30;99.90
54518;DHT22;40423;53.176;6.002;2022-09-16T18:04:10;13.30;99.90
54518;DHT22;40423;53.176;6.002;2022-09-16T18:06:44;13.30;99.90
54518;DHT22;40423;53.176;6.002;2022-09-16T18:09:10;13.20;99.90
54518;DHT22;40423;53.176;6.002;2022-09-16T18:11:37;13.30;99.90
54518;DHT22;40423;53.176;6.002;2022-09-16T18:14:05;13.20;99.90
54518;DHT22;40423;53.176;6.002;2022-09-16T18:16:32;13.30;99.90
54518;DHT22;40423;53.176;6.002;2022-09-16T18:18:59;13.30;99.90
54518;DHT22;40423;53.176;6.002;2022-09-16T18:21:28;13.30;99.90
54518;DHT22;40423;53.176;6.002;2022-09-16T18:23:55;13.30;99.90
54518;DHT22;40423;53.176;6.002;2022-09-16T18:26:22;13.30;99.90
54518;DHT22;40423;53.176;6.002;2022-09-16T18:28:49;13.30;99.90
54518;DHT22;40423;53.176;6.002;2022-09-16T18:31:18;13.30;99.90
54518;DHT22;40423;53.176;6.002;2022-09-16T18:33:45;13.30;99.90
54518;DHT22;40423;53.176;6.002;2022-09-16T18:36:12;13.30;99.90
54518;DHT22;40423;53.176;6.002;2022-09-16T18:38:39;13.30;99.90
54518;DHT22;40423;53.176;6.002;2022-09-16T18:41:06;13.30;99.90
54518;DHT22;40423;53.176;6.002;2022-09-16T18:43:33;13.20;99.90
54518;DHT22;40423;53.176;6.002;2022-09-16T18:48:40;13.20;99.90
54518;DHT22;40423;53.176;6.002;2022-09-16T18:51:20;13.10;99.90
54518;DHT22;40423;53.176;6.002;2022-09-16T18:53:47;13.10;99.90
54518;DHT22;40423;53.176;6.002;2022-09-16T18:56:16;13.10;99.90
54518;DHT22;40423;53.176;6.002;2022-09-16T18:58:46;13.10;99.90